sensor_id;sensor_type;location;lat;lon;timestamp;temperature;humidity
61092;DHT22;46975;51.898;11.444;2023-02-04T00:01:44;4.20;99.90
61092;DHT22;46975;51.898;11.444;2023-02-04T00:04:11;4.20;99.90
61092;DHT22;46975;51.898;11.444;2023-02-04T00:06:37;4.20;99.90
61092;DHT22;46975;51.898;11.444;2023-02-04T00:09:03;4.20;99.90
61092;DHT22;46975;51.898;11.444;2023-02-04T00:11:28;4.20;99.90
61092;DHT22;46975;51.898;11.444;2023-02-04T00:13:54;4.20;99.90
61092;DHT22;46975;51.898;11.444;2023-02-04T00:16:20;4.30;99.90
61092;DHT22;46975;51.898;11.444;2023-02-04T00:18:45;4.30;99.90
61092;DHT22;46975;51.898;11.444;2023-02-04T00:21:11;4.30;99.90
61092;DHT22;46975;51.898;11.444;2023-02-04T00:23:37;4.30;99.90
61092;DHT22;46975;51.898;11.444;2023-02-04T00:26:02;4.30;99.90
61092;DHT22;46975;51.898;11.444;2023-02-04T00:28:28;4.30;99.90
61092;DHT22;46975;51.898;11.444;2023-02-04T00:30:54;4.30;99.90
61092;DHT22;46975;51.898;11.444;2023-02-04T00:33:19;4.20;99.90
61092;DHT22;46975;51.898;11.444;2023-02-04T00:35:45;4.20;99.90
61092;DHT22;46975;51.898;11.444;2023-02-04T00:38:10;4.20;99.90
61092;DHT22;46975;51.898;11.444;2023-02-04T00:40:36;4.20;99.90
61092;DHT22;46975;51.898;11.444;2023-02-04T00:43:03;4.20;99.90
61092;DHT22;46975;51.898;11.444;2023-02-04T00:45:29;4.30;99.90
61092;DHT22;46975;51.898;11.444;2023-02-04T00:47:55;4.20;99.90
61092;DHT22;46975;51.898;11.444;2023-02-04T00:50:21;4.20;99.90
61092;DHT22;46975;51.898;11.444;2023-02-04T00:52:47;4.20;99.90
61092;DHT22;46975;51.898;11.444;2023-02-04T00:55:13;4.20;99.90
61092;DHT22;46975;51.898;11.444;2023-02-04T00:57:41;4.20;99.90
61092;DHT22;46975;51.898;11.444;2023-02-04T01:00:09;4.20;99.90
61092;DHT22;46975;51.898;11.444;2023-02-04T01:02:35;4.10;99.90
61092;DHT22;46975;51.898;11.444;2023-02-04T01:05:01;4.10;99.90
61092;DHT22;46975;51.898;11.444;2023-02-04T01:07:27;4.10;99.90
61092;DHT22;46975;51.898;11.444;2023-02-04T01:09:53;4.10;99.90
61092;DHT22;46975;51.898;11.444;2023-02-04T01:12:18;4.00;99.90
61092;DHT22;46975;51.898;11.444;2023-02-04T01:14:47;3.90;99.90
61092;DHT22;46975;51.898;11.444;2023-02-04T01:17:12;3.80;99.90
61092;DHT22;46975;51.898;11.444;2023-02-04T01:19:38;3.70;99.90
61092;DHT22;46975;51.898;11.444;2023-02-04T01:22:04;3.60;99.90
61092;DHT22;46975;51.898;11.444;2023-02-04T01:24:29;3.50;99.90
61092;DHT22;46975;51.898;11.444;2023-02-04T01:26:55;3.50;99.90
61092;DHT22;46975;51.898;11.444;2023-02-04T01:29:20;3.50;99.90
61092;DHT22;46975;51.898;11.444;2023-02-04T01:31:46;3.40;99.90
61092;DHT22;46975;51.898;11.444;2023-02-04T01:34:11;3.40;99.90
61092;DHT22;46975;51.898;11.444;2023-02-04T01:36:37;3.30;99.90
61092;DHT22;46975;51.898;11.444;2023-02-04T01:39:03;3.30;99.90
61092;DHT22;46975;51.898;11.444;2023-02-04T01:41:28;3.20;99.90
61092;DHT22;46975;51.898;11.444;2023-02-04T01:43:54;3.20;99.90
61092;DHT22;46975;51.898;11.444;2023-02-04T01:46:20;3.20;99.90
61092;DHT22;46975;51.898;11.444;2023-02-04T01:48:45;3.10;99.90
61092;DHT22;46975;51.898;11.444;2023-02-04T01:51:13;3.10;99.90
61092;DHT22;46975;51.898;11.444;2023-02-04T01:53:40;3.20;99.90
61092;DHT22;46975;51.898;11.444;2023-02-04T01:56:15;3.20;99.90
61092;DHT22;46975;51.898;11.444;2023-02-04T01:58:41;3.20;99.90
61092;DHT22;46975;51.898;11.444;2023-02-04T02:01:32;3.20;99.90
61092;DHT22;46975;51.898;11.444;2023-02-04T02:03:59;3.10;99.90
61092;DHT22;46975;51.898;11.444;2023-02-04T02:06:24;3.10;99.90
61092;DHT22;46975;51.898;11.444;2023-02-04T02:08:51;3.10;99.90
61092;DHT22;46975;51.898;11.444;2023-02-04T02:11:16;3.00;99.90
61092;DHT22;46975;51.898;11.444;2023-02-04T02:13:42;3.00;99.90
61092;DHT22;46975;51.898;11.444;2023-02-04T02:16:08;2.90;99.90
61092;DHT22;46975;51.898;11.444;2023-02-04T02:18:33;2.90;99.90
61092;DHT22;46975;51.898;11.444;2023-02-04T02:21:04;2.90;99.90
61092;DHT22;46975;51.898;11.444;2023-02-04T02:26:15;2.70;99.90
61092;DHT22;46975;51.898;11.444;2023-02-04T02:28:42;2.70;99.90
61092;DHT22;46975;51.898;11.444;2023-02-04T02:31:08;2.70;99.90
61092;DHT22;46975;51.898;11.444;2023-02-04T02:33:34;2.70;99.90
61092;DHT22;46975;51.898;11.444;2023-02-04T02:36:00;2.70;99.90
61092;DHT22;46975;51.898;11.444;2023-02-04T02:38:26;2.80;99.90
61092;DHT22;46975;51.898;11.444;2023-02-04T02:40:51;2.80;99.90
61092;DHT22;46975;51.898;11.444;2023-02-04T02:43:21;2.90;99.90
61092;DHT22;46975;51.898;11.444;2023-02-04T02:45:47;2.90;99.90
61092;DHT22;46975;51.898;11.444;2023-02-04T02:48:14;3.10;99.90
61092;DHT22;46975;51.898;11.444;2023-02-04T02:50:41;3.10;99.90
61092;DHT22;46975;51.898;11.444;2023-02-04T02:53:13;3.00;99.90
61092;DHT22;46975;51.898;11.444;2023-02-04T02:55:39;3.00;99.90
61092;DHT22;46975;51.898;11.444;2023-02-04T02:58:28;2.90;99.90
61092;DHT22;46975;51.898;11.444;2023-02-04T03:00:57;2.90;99.90
61092;DHT22;46975;51.898;11.444;2023-02-04T03:03:29;2.90;99.90
61092;DHT22;46975;51.898;11.444;2023-02-04T03:06:00;2.80;99.90
61092;DHT22;46975;51.898;11.444;2023-02-04T03:08:28;2.80;99.90
61092;DHT22;46975;51.898;11.444;2023-02-04T03:10:53;2.90;99.90
61092;DHT22;46975;51.898;11.444;2023-02-04T03:13:20;2.90;99.90
61092;DHT22;46975;51.898;11.444;2023-02-04T03:15:47;3.00;99.90
61092;DHT22;46975;51.898;11.444;2023-02-04T03:18:15;3.10;99.90
61092;DHT22;46975;51.898;11.444;2023-02-04T03:20:41;3.10;99.90
61092;DHT22;46975;51.898;11.444;2023-02-04T03:23:07;3.10;99.90
61092;DHT22;46975;51.898;11.444;2023-02-04T03:25:33;3.00;99.90
61092;DHT22;46975;51.898;11.444;2023-02-04T03:27:59;3.00;99.90
61092;DHT22;46975;51.898;11.444;2023-02-04T03:30:25;2.90;99.90
61092;DHT22;46975;51.898;11.444;2023-02-04T03:32:52;2.90;99.90
61092;DHT22;46975;51.898;11.444;2023-02-04T03:35:19;2.80;99.90
61092;DHT22;46975;51.898;11.444;2023-02-04T03:37:44;2.80;99.90
61092;DHT22;46975;51.898;11.444;2023-02-04T03:40:10;2.80;99.90
61092;DHT22;46975;51.898;11.444;2023-02-04T03:42:36;2.70;99.90
61092;DHT22;46975;51.898;11.444;2023-02-04T03:45:02;2.70;99.90
61092;DHT22;46975;51.898;11.444;2023-02-04T03:47:28;2.60;99.90
61092;DHT22;46975;51.898;11.444;2023-02-04T03:49:54;2.70;99.90
61092;DHT22;46975;51.898;11.444;2023-02-04T03:52:19;2.80;99.90
61092;DHT22;46975;51.898;11.444;2023-02-04T03:54:45;2.80;99.90
61092;DHT22;46975;51.898;11.444;2023-02-04T03:57:11;2.80;99.90
61092;DHT22;46975;51.898;11.444;2023-02-04T03:59:37;2.90;99.90
61092;DHT22;46975;51.898;11.444;2023-02-04T04:02:03;3.00;99.90
61092;DHT22;46975;51.898;11.444;2023-02-04T04:04:28;3.00;99.90
61092;DHT22;46975;51.898;11.444;2023-02-04T04:06:54;3.00;99.90
61092;DHT22;46975;51.898;11.444;2023-02-04T04:09:20;3.10;99.90
61092;DHT22;46975;51.898;11.444;2023-02-04T04:11:45;3.10;99.90
61092;DHT22;46975;51.898;11.444;2023-02-04T04:14:11;3.10;99.90
61092;DHT22;46975;51.898;11.444;2023-02-04T04:16:36;3.20;99.90
61092;DHT22;46975;51.898;11.444;2023-02-04T04:19:02;3.20;99.90
61092;DHT22;46975;51.898;11.444;2023-02-04T04:21:28;3.10;99.90
61092;DHT22;46975;51.898;11.444;2023-02-04T04:23:53;3.10;99.90
61092;DHT22;46975;51.898;11.444;2023-02-04T04:26:19;3.10;99.90
61092;DHT22;46975;51.898;11.444;2023-02-04T04:28:44;3.10;99.90
61092;DHT22;46975;51.898;11.444;2023-02-04T04:31:10;3.00;99.90
61092;DHT22;46975;51.898;11.444;2023-02-04T04:33:36;3.00;99.90
61092;DHT22;46975;51.898;11.444;2023-02-04T04:36:03;3.00;99.90
61092;DHT22;46975;51.898;11.444;2023-02-04T04:38:29;2.90;99.90
61092;DHT22;46975;51.898;11.444;2023-02-04T04:40:54;2.90;99.90
61092;DHT22;46975;51.898;11.444;2023-02-04T04:43:20;2.80;99.90
61092;DHT22;46975;51.898;11.444;2023-02-04T04:45:45;2.70;99.90
61092;DHT22;46975;51.898;11.444;2023-02-04T04:48:11;2.60;99.90
61092;DHT22;46975;51.898;11.444;2023-02-04T04:50:37;2.50;99.90
61092;DHT22;46975;51.898;11.444;2023-02-04T04:53:02;2.40;99.90
61092;DHT22;46975;51.898;11.444;2023-02-04T04:55:28;2.30;99.90
61092;DHT22;46975;51.898;11.444;2023-02-04T04:57:53;2.30;99.90
61092;DHT22;46975;51.898;11.444;2023-02-04T05:00:20;2.30;99.90
61092;DHT22;46975;51.898;11.444;2023-02-04T05:02:45;2.20;99.90
61092;DHT22;46975;51.898;11.444;2023-02-04T05:05:12;2.10;99.90
61092;DHT22;46975;51.898;11.444;2023-02-04T05:07:38;2.00;99.90
61092;DHT22;46975;51.898;11.444;2023-02-04T05:10:04;1.90;99.90
61092;DHT22;46975;51.898;11.444;2023-02-04T05:12:31;1.80;99.90
61092;DHT22;46975;51.898;11.444;2023-02-04T05:14:57;1.70;99.90
61092;DHT22;46975;51.898;11.444;2023-02-04T05:17:22;1.70;99.90
61092;DHT22;46975;51.898;11.444;2023-02-04T05:19:48;1.70;99.90
61092;DHT22;46975;51.898;11.444;2023-02-04T05:22:13;1.70;99.90
61092;DHT22;46975;51.898;11.444;2023-02-04T05:24:39;1.70;99.90
61092;DHT22;46975;51.898;11.444;2023-02-04T05:27:05;1.80;99.90
61092;DHT22;46975;51.898;11.444;2023-02-04T05:29:30;1.80;99.90
61092;DHT22;46975;51.898;11.444;2023-02-04T05:31:56;1.80;99.90
61092;DHT22;46975;51.898;11.444;2023-02-04T05:34:21;1.70;99.90
61092;DHT22;46975;51.898;11.444;2023-02-04T05:36:47;1.60;99.90
61092;DHT22;46975;51.898;11.444;2023-02-04T05:39:12;1.50;99.90
61092;DHT22;46975;51.898;11.444;2023-02-04T05:41:38;1.50;99.90
61092;DHT22;46975;51.898;11.444;2023-02-04T05:44:04;1.50;99.90
61092;DHT22;46975;51.898;11.444;2023-02-04T05:46:29;1.40;99.90
61092;DHT22;46975;51.898;11.444;2023-02-04T05:48:55;1.40;99.90
61092;DHT22;46975;51.898;11.444;2023-02-04T05:51:21;1.30;99.90
61092;DHT22;46975;51.898;11.444;2023-02-04T05:53:46;1.30;99.90
61092;DHT22;46975;51.898;11.444;2023-02-04T05:56:12;1.30;99.90
61092;DHT22;46975;51.898;11.444;2023-02-04T05:58:37;1.30;99.90
61092;DHT22;46975;51.898;11.444;2023-02-04T06:01:03;1.30;99.90
61092;DHT22;46975;51.898;11.444;2023-02-04T06:03:30;1.30;99.90
61092;DHT22;46975;51.898;11.444;2023-02-04T06:05:56;1.30;99.90
61092;DHT22;46975;51.898;11.444;2023-02-04T06:08:21;1.30;99.90
61092;DHT22;46975;51.898;11.444;2023-02-04T06:10:48;1.30;99.90
61092;DHT22;46975;51.898;11.444;2023-02-04T06:13:13;1.40;99.90
61092;DHT22;46975;51.898;11.444;2023-02-04T06:15:39;1.40;99.90
61092;DHT22;46975;51.898;11.444;2023-02-04T06:18:05;1.40;99.90
61092;DHT22;46975;51.898;11.444;2023-02-04T06:20:31;1.40;99.90
61092;DHT22;46975;51.898;11.444;2023-02-04T06:22:57;1.50;99.90
61092;DHT22;46975;51.898;11.444;2023-02-04T06:25:23;1.50;99.90
61092;DHT22;46975;51.898;11.444;2023-02-04T06:27:48;1.50;99.90
61092;DHT22;46975;51.898;11.444;2023-02-04T06:30:15;1.50;99.90
61092;DHT22;46975;51.898;11.444;2023-02-04T06:32:41;1.50;99.90
61092;DHT22;46975;51.898;11.444;2023-02-04T06:35:07;1.40;99.90
61092;DHT22;46975;51.898;11.444;2023-02-04T06:37:33;1.40;99.90
61092;DHT22;46975;51.898;11.444;2023-02-04T06:39:59;1.40;99.90
61092;DHT22;46975;51.898;11.444;2023-02-04T06:42:24;1.50;99.90
61092;DHT22;46975;51.898;11.444;2023-02-04T06:44:51;1.60;99.90
61092;DHT22;46975;51.898;11.444;2023-02-04T06:47:17;1.70;99.90
61092;DHT22;46975;51.898;11.444;2023-02-04T06:49:42;1.80;99.90
61092;DHT22;46975;51.898;11.444;2023-02-04T06:52:08;1.80;99.90
61092;DHT22;46975;51.898;11.444;2023-02-04T06:54:34;1.80;99.90
61092;DHT22;46975;51.898;11.444;2023-02-04T06:56:59;1.80;99.90
61092;DHT22;46975;51.898;11.444;2023-02-04T06:59:38;1.80;99.90
61092;DHT22;46975;51.898;11.444;2023-02-04T07:02:06;1.70;99.90
61092;DHT22;46975;51.898;11.444;2023-02-04T07:04:33;1.70;99.90
61092;DHT22;46975;51.898;11.444;2023-02-04T07:06:58;1.60;99.90
61092;DHT22;46975;51.898;11.444;2023-02-04T07:09:24;1.70;99.90
61092;DHT22;46975;51.898;11.444;2023-02-04T07:11:50;1.70;99.90
61092;DHT22;46975;51.898;11.444;2023-02-04T07:14:15;1.70;99.90
61092;DHT22;46975;51.898;11.444;2023-02-04T07:16:41;1.80;99.90
61092;DHT22;46975;51.898;11.444;2023-02-04T07:19:06;1.80;99.90
61092;DHT22;46975;51.898;11.444;2023-02-04T07:21:32;1.90;99.90
61092;DHT22;46975;51.898;11.444;2023-02-04T07:23:57;2.00;99.90
61092;DHT22;46975;51.898;11.444;2023-02-04T07:26:23;2.10;99.90
61092;DHT22;46975;51.898;11.444;2023-02-04T07:28:49;2.00;99.90
61092;DHT22;46975;51.898;11.444;2023-02-04T07:31:14;2.00;99.90
61092;DHT22;46975;51.898;11.444;2023-02-04T07:33:40;2.00;99.90
61092;DHT22;46975;51.898;11.444;2023-02-04T07:36:06;2.00;99.90
61092;DHT22;46975;51.898;11.444;2023-02-04T07:38:32;1.90;99.90
61092;DHT22;46975;51.898;11.444;2023-02-04T07:40:57;1.90;99.90
61092;DHT22;46975;51.898;11.444;2023-02-04T07:43:23;1.90;99.90
61092;DHT22;46975;51.898;11.444;2023-02-04T07:45:49;1.90;99.90
61092;DHT22;46975;51.898;11.444;2023-02-04T07:48:14;1.90;99.90
61092;DHT22;46975;51.898;11.444;2023-02-04T07:50:40;1.90;99.90
61092;DHT22;46975;51.898;11.444;2023-02-04T07:53:05;1.90;99.90
61092;DHT22;46975;51.898;11.444;2023-02-04T07:55:31;1.90;99.90
61092;DHT22;46975;51.898;11.444;2023-02-04T07:57:57;2.00;99.90
61092;DHT22;46975;51.898;11.444;2023-02-04T08:00:22;2.00;99.90
61092;DHT22;46975;51.898;11.444;2023-02-04T08:02:49;2.00;99.90
61092;DHT22;46975;51.898;11.444;2023-02-04T08:05:14;2.00;99.90
61092;DHT22;46975;51.898;11.444;2023-02-04T08:07:40;2.00;99.90
61092;DHT22;46975;51.898;11.444;2023-02-04T08:10:07;2.00;99.90
61092;DHT22;46975;51.898;11.444;2023-02-04T08:12:33;2.00;99.90
61092;DHT22;46975;51.898;11.444;2023-02-04T08:14:59;2.00;99.90
61092;DHT22;46975;51.898;11.444;2023-02-04T08:17:26;2.00;99.90
61092;DHT22;46975;51.898;11.444;2023-02-04T08:19:51;2.10;99.90
61092;DHT22;46975;51.898;11.444;2023-02-04T08:22:17;2.10;99.90
61092;DHT22;46975;51.898;11.444;2023-02-04T08:24:42;2.20;99.90
61092;DHT22;46975;51.898;11.444;2023-02-04T08:27:08;2.20;99.90
61092;DHT22;46975;51.898;11.444;2023-02-04T08:29:33;2.30;99.90
61092;DHT22;46975;51.898;11.444;2023-02-04T08:31:59;2.30;99.90
61092;DHT22;46975;51.898;11.444;2023-02-04T08:34:25;2.30;99.90
61092;DHT22;46975;51.898;11.444;2023-02-04T08:36:50;2.30;99.90
61092;DHT22;46975;51.898;11.444;2023-02-04T08:39:16;2.40;99.90
61092;DHT22;46975;51.898;11.444;2023-02-04T08:41:41;2.40;99.90
61092;DHT22;46975;51.898;11.444;2023-02-04T08:44:07;2.40;99.90
61092;DHT22;46975;51.898;11.444;2023-02-04T08:46:32;2.50;99.90
61092;DHT22;46975;51.898;11.444;2023-02-04T08:48:58;2.50;99.90
61092;DHT22;46975;51.898;11.444;2023-02-04T08:51:24;2.60;99.90
61092;DHT22;46975;51.898;11.444;2023-02-04T08:53:49;2.60;99.90
61092;DHT22;46975;51.898;11.444;2023-02-04T08:56:15;2.70;99.90
61092;DHT22;46975;51.898;11.444;2023-02-04T08:58:43;2.60;99.90
61092;DHT22;46975;51.898;11.444;2023-02-04T09:01:09;2.70;99.90
61092;DHT22;46975;51.898;11.444;2023-02-04T09:03:36;2.60;99.90
61092;DHT22;46975;51.898;11.444;2023-02-04T09:06:02;2.60;99.90
61092;DHT22;46975;51.898;11.444;2023-02-04T09:08:28;2.70;99.90
61092;DHT22;46975;51.898;11.444;2023-02-04T09:10:54;2.70;99.90
61092;DHT22;46975;51.898;11.444;2023-02-04T09:13:19;2.80;99.90
61092;DHT22;46975;51.898;11.444;2023-02-04T09:15:45;2.80;99.90
61092;DHT22;46975;51.898;11.444;2023-02-04T09:18:10;2.90;99.90
61092;DHT22;46975;51.898;11.444;2023-02-04T09:20:41;2.90;99.90
61092;DHT22;46975;51.898;11.444;2023-02-04T09:23:07;3.00;99.90
61092;DHT22;46975;51.898;11.444;2023-02-04T09:25:35;3.00;99.90
61092;DHT22;46975;51.898;11.444;2023-02-04T09:28:00;3.10;99.90
61092;DHT22;46975;51.898;11.444;2023-02-04T09:30:26;3.10;99.90
61092;DHT22;46975;51.898;11.444;2023-02-04T09:32:52;3.20;99.90
61092;DHT22;46975;51.898;11.444;2023-02-04T09:35:17;3.30;99.90
61092;DHT22;46975;51.898;11.444;2023-02-04T09:37:43;3.40;99.90
61092;DHT22;46975;51.898;11.444;2023-02-04T09:40:18;3.40;99.90
61092;DHT22;46975;51.898;11.444;2023-02-04T09:42:49;3.40;99.90
61092;DHT22;46975;51.898;11.444;2023-02-04T09:45:34;3.40;99.90
61092;DHT22;46975;51.898;11.444;2023-02-04T09:48:03;3.30;99.90
61092;DHT22;46975;51.898;11.444;2023-02-04T09:50:30;3.40;99.90
61092;DHT22;46975;51.898;11.444;2023-02-04T09:53:04;3.40;99.90
61092;DHT22;46975;51.898;11.444;2023-02-04T09:55:36;3.40;99.90
61092;DHT22;46975;51.898;11.444;2023-02-04T09:58:09;3.50;99.90
61092;DHT22;46975;51.898;11.444;2023-02-04T10:00:35;3.40;99.90
61092;DHT22;46975;51.898;11.444;2023-02-04T10:03:02;3.40;99.90
61092;DHT22;46975;51.898;11.444;2023-02-04T10:05:30;3.40;99.90
61092;DHT22;46975;51.898;11.444;2023-02-04T10:07:57;3.40;99.90
61092;DHT22;46975;51.898;11.444;2023-02-04T10:10:24;3.60;99.90
61092;DHT22;46975;51.898;11.444;2023-02-04T10:12:54;3.50;99.90
61092;DHT22;46975;51.898;11.444;2023-02-04T10:15:20;3.50;99.90
61092;DHT22;46975;51.898;11.444;2023-02-04T10:17:48;3.50;99.90
61092;DHT22;46975;51.898;11.444;2023-02-04T10:20:17;3.70;99.90
61092;DHT22;46975;51.898;11.444;2023-02-04T10:22:43;3.70;99.90
61092;DHT22;46975;51.898;11.444;2023-02-04T10:25:13;3.70;99.90
61092;DHT22;46975;51.898;11.444;2023-02-04T10:30:31;3.70;99.90
61092;DHT22;46975;51.898;11.444;2023-02-04T10:33:25;3.80;99.90
61092;DHT22;46975;51.898;11.444;2023-02-04T10:35:53;3.80;99.90
61092;DHT22;46975;51.898;11.444;2023-02-04T10:38:19;3.80;99.90
61092;DHT22;46975;51.898;11.444;2023-02-04T10:40:45;3.80;99.90
61092;DHT22;46975;51.898;11.444;2023-02-04T10:43:21;3.90;99.90
61092;DHT22;46975;51.898;11.444;2023-02-04T10:46:07;4.00;99.90
61092;DHT22;46975;51.898;11.444;2023-02-04T10:48:40;4.20;99.90
61092;DHT22;46975;51.898;11.444;2023-02-04T10:51:09;4.30;99.90
61092;DHT22;46975;51.898;11.444;2023-02-04T10:53:37;4.40;99.90
61092;DHT22;46975;51.898;11.444;2023-02-04T10:56:21;4.40;99.90
61092;DHT22;46975;51.898;11.444;2023-02-04T10:58:47;4.40;99.90
61092;DHT22;46975;51.898;11.444;2023-02-04T11:01:15;4.40;99.90
61092;DHT22;46975;51.898;11.444;2023-02-04T11:03:41;4.50;99.90
61092;DHT22;46975;51.898;11.444;2023-02-04T11:06:19;4.50;99.90
61092;DHT22;46975;51.898;11.444;2023-02-04T11:08:46;4.60;99.90
61092;DHT22;46975;51.898;11.444;2023-02-04T11:11:22;4.70;99.90
61092;DHT22;46975;51.898;11.444;2023-02-04T11:29:36;5.20;99.90
61092;DHT22;46975;51.898;11.444;2023-02-04T11:32:27;5.30;99.90
61092;DHT22;46975;51.898;11.444;2023-02-04T11:34:53;5.30;99.90
61092;DHT22;46975;51.898;11.444;2023-02-04T11:37:37;5.30;99.90
61092;DHT22;46975;51.898;11.444;2023-02-04T11:42:46;5.10;99.90
61092;DHT22;46975;51.898;11.444;2023-02-04T11:45:13;5.20;99.90
61092;DHT22;46975;51.898;11.444;2023-02-04T11:47:40;5.30;99.90
61092;DHT22;46975;51.898;11.444;2023-02-04T11:50:33;5.40;99.90
61092;DHT22;46975;51.898;11.444;2023-02-04T11:53:00;5.40;99.90
61092;DHT22;46975;51.898;11.444;2023-02-04T11:55:30;5.50;99.90
61092;DHT22;46975;51.898;11.444;2023-02-04T11:57:56;5.60;99.90
61092;DHT22;46975;51.898;11.444;2023-02-04T12:00:24;5.40;99.90
61092;DHT22;46975;51.898;11.444;2023-02-04T12:02:56;5.50;99.90
61092;DHT22;46975;51.898;11.444;2023-02-04T12:05:35;5.50;99.90
61092;DHT22;46975;51.898;11.444;2023-02-04T12:08:09;5.40;99.90
61092;DHT22;46975;51.898;11.444;2023-02-04T12:10:35;5.30;99.90
61092;DHT22;46975;51.898;11.444;2023-02-04T12:13:11;5.30;99.90
61092;DHT22;46975;51.898;11.444;2023-02-04T12:15:37;5.20;99.90
61092;DHT22;46975;51.898;11.444;2023-02-04T12:18:08;4.90;99.90
61092;DHT22;46975;51.898;11.444;2023-02-04T12:20:35;4.90;99.90
61092;DHT22;46975;51.898;11.444;2023-02-04T12:23:01;4.80;99.90
61092;DHT22;46975;51.898;11.444;2023-02-04T12:25:27;4.70;99.90
61092;DHT22;46975;51.898;11.444;2023-02-04T12:27:53;4.70;99.90
61092;DHT22;46975;51.898;11.444;2023-02-04T12:30:20;4.60;99.90
61092;DHT22;46975;51.898;11.444;2023-02-04T12:32:46;4.60;99.90
61092;DHT22;46975;51.898;11.444;2023-02-04T12:35:12;4.60;99.90
61092;DHT22;46975;51.898;11.444;2023-02-04T12:37:38;4.60;99.90
61092;DHT22;46975;51.898;11.444;2023-02-04T12:40:04;4.60;99.90
61092;DHT22;46975;51.898;11.444;2023-02-04T12:42:29;4.60;99.90
61092;DHT22;46975;51.898;11.444;2023-02-04T12:44:55;4.80;99.90
61092;DHT22;46975;51.898;11.444;2023-02-04T12:47:20;5.00;99.90
61092;DHT22;46975;51.898;11.444;2023-02-04T12:49:46;5.40;99.90
61092;DHT22;46975;51.898;11.444;2023-02-04T12:52:12;5.60;99.90
61092;DHT22;46975;51.898;11.444;2023-02-04T12:54:38;5.60;99.90
61092;DHT22;46975;51.898;11.444;2023-02-04T12:57:03;5.70;99.90
61092;DHT22;46975;51.898;11.444;2023-02-04T12:59:30;5.90;99.90
61092;DHT22;46975;51.898;11.444;2023-02-04T13:01:58;5.90;99.90
61092;DHT22;46975;51.898;11.444;2023-02-04T13:04:24;6.00;99.90
61092;DHT22;46975;51.898;11.444;2023-02-04T13:06:49;6.20;99.90
61092;DHT22;46975;51.898;11.444;2023-02-04T13:09:15;6.30;99.90
61092;DHT22;46975;51.898;11.444;2023-02-04T13:11:40;6.40;99.90
61092;DHT22;46975;51.898;11.444;2023-02-04T13:14:06;6.40;99.90
61092;DHT22;46975;51.898;11.444;2023-02-04T13:16:32;6.40;99.90
61092;DHT22;46975;51.898;11.444;2023-02-04T13:18:57;5.90;99.90
61092;DHT22;46975;51.898;11.444;2023-02-04T13:21:23;5.80;99.90
61092;DHT22;46975;51.898;11.444;2023-02-04T13:23:48;5.80;99.90
61092;DHT22;46975;51.898;11.444;2023-02-04T13:26:14;5.70;99.90
61092;DHT22;46975;51.898;11.444;2023-02-04T13:28:39;5.70;99.90
61092;DHT22;46975;51.898;11.444;2023-02-04T13:31:05;5.60;99.90
61092;DHT22;46975;51.898;11.444;2023-02-04T13:33:31;5.50;99.90
61092;DHT22;46975;51.898;11.444;2023-02-04T13:35:57;5.30;99.90
61092;DHT22;46975;51.898;11.444;2023-02-04T13:38:23;5.30;99.90
61092;DHT22;46975;51.898;11.444;2023-02-04T13:40:49;5.40;99.90
61092;DHT22;46975;51.898;11.444;2023-02-04T13:43:15;5.40;99.90
61092;DHT22;46975;51.898;11.444;2023-02-04T13:45:40;5.40;99.90
61092;DHT22;46975;51.898;11.444;2023-02-04T13:48:12;5.50;99.90
61092;DHT22;46975;51.898;11.444;2023-02-04T13:50:37;5.40;99.90
61092;DHT22;46975;51.898;11.444;2023-02-04T13:53:03;5.40;99.90
61092;DHT22;46975;51.898;11.444;2023-02-04T13:55:28;5.50;99.90
61092;DHT22;46975;51.898;11.444;2023-02-04T13:57:54;5.50;99.90
61092;DHT22;46975;51.898;11.444;2023-02-04T14:00:20;5.60;99.90
61092;DHT22;46975;51.898;11.444;2023-02-04T14:02:45;5.60;99.90
61092;DHT22;46975;51.898;11.444;2023-02-04T14:05:13;5.80;99.90
61092;DHT22;46975;51.898;11.444;2023-02-04T14:07:39;5.70;99.90
61092;DHT22;46975;51.898;11.444;2023-02-04T14:10:05;5.70;99.90
61092;DHT22;46975;51.898;11.444;2023-02-04T14:12:31;5.50;99.90
61092;DHT22;46975;51.898;11.444;2023-02-04T14:14:57;5.50;99.90
61092;DHT22;46975;51.898;11.444;2023-02-04T14:17:22;5.50;99.90
61092;DHT22;46975;51.898;11.444;2023-02-04T14:19:48;5.50;99.90
61092;DHT22;46975;51.898;11.444;2023-02-04T14:22:13;5.60;99.90
61092;DHT22;46975;51.898;11.444;2023-02-04T14:24:39;5.60;99.90
61092;DHT22;46975;51.898;11.444;2023-02-04T14:27:07;5.70;99.90
61092;DHT22;46975;51.898;11.444;2023-02-04T14:29:33;5.60;99.90
61092;DHT22;46975;51.898;11.444;2023-02-04T14:31:59;5.50;99.90
61092;DHT22;46975;51.898;11.444;2023-02-04T14:34:25;5.50;99.90
61092;DHT22;46975;51.898;11.444;2023-02-04T14:36:50;5.30;99.90
61092;DHT22;46975;51.898;11.444;2023-02-04T14:39:16;5.10;99.90
61092;DHT22;46975;51.898;11.444;2023-02-04T14:41:41;5.00;99.90
61092;DHT22;46975;51.898;11.444;2023-02-04T14:44:07;4.90;99.90
61092;DHT22;46975;51.898;11.444;2023-02-04T14:46:33;4.90;99.90
61092;DHT22;46975;51.898;11.444;2023-02-04T14:48:58;4.90;99.90
61092;DHT22;46975;51.898;11.444;2023-02-04T14:51:24;4.90;99.90
61092;DHT22;46975;51.898;11.444;2023-02-04T14:53:49;5.00;99.90
61092;DHT22;46975;51.898;11.444;2023-02-04T14:56:15;4.90;99.90
61092;DHT22;46975;51.898;11.444;2023-02-04T14:58:41;4.90;99.90
61092;DHT22;46975;51.898;11.444;2023-02-04T15:01:07;4.80;99.90
61092;DHT22;46975;51.898;11.444;2023-02-04T15:03:33;4.80;99.90
61092;DHT22;46975;51.898;11.444;2023-02-04T15:05:58;4.60;99.90
61092;DHT22;46975;51.898;11.444;2023-02-04T15:08:24;4.60;99.90
61092;DHT22;46975;51.898;11.444;2023-02-04T15:10:49;4.40;99.90
61092;DHT22;46975;51.898;11.444;2023-02-04T15:13:15;4.30;99.90
61092;DHT22;46975;51.898;11.444;2023-02-04T15:15:41;4.10;99.90
61092;DHT22;46975;51.898;11.444;2023-02-04T15:18:06;4.00;99.90
61092;DHT22;46975;51.898;11.444;2023-02-04T15:20:32;4.00;99.90
61092;DHT22;46975;51.898;11.444;2023-02-04T15:22:57;3.90;99.90
61092;DHT22;46975;51.898;11.444;2023-02-04T15:25:23;3.70;99.90
61092;DHT22;46975;51.898;11.444;2023-02-04T15:27:49;3.70;99.90
61092;DHT22;46975;51.898;11.444;2023-02-04T15:30:15;3.60;99.90
61092;DHT22;46975;51.898;11.444;2023-02-04T15:32:40;3.50;99.90
61092;DHT22;46975;51.898;11.444;2023-02-04T15:35:07;3.50;99.90
61092;DHT22;46975;51.898;11.444;2023-02-04T15:37:34;3.40;99.90
61092;DHT22;46975;51.898;11.444;2023-02-04T15:39:59;3.40;99.90
61092;DHT22;46975;51.898;11.444;2023-02-04T15:42:25;3.40;99.90
61092;DHT22;46975;51.898;11.444;2023-02-04T15:44:51;3.30;99.90
61092;DHT22;46975;51.898;11.444;2023-02-04T15:47:17;3.20;99.90
61092;DHT22;46975;51.898;11.444;2023-02-04T15:49:44;3.10;99.90
61092;DHT22;46975;51.898;11.444;2023-02-04T15:52:10;3.00;99.90